Time;durP1;ratioP1;P1;durP2;ratioP2;P2;SDS_P1;SDS_P2;PMS_P1;PMS_P2;Temp;Humidity;BMP_temperature;BMP_pressure;BME280_temperature;BME280_humidity;BME280_pressure;Samples;Min_cycle;Max_cycle;Signal;HPM_P1;HPM_P2
2022/07/29 00:05:19;;;;;;;0.40;0.40;;;;;;;18.41;73.80;101534.06;21040398;28;20561;-74
2022/07/29 00:15:20;;;;;;;0.90;0.50;;;;;;;19.01;73.90;101627.31;21016707;28;20522;-75
2022/07/29 00:25:22;;;;;;;0.65;0.43;;;;;;;18.99;73.77;101609.38;21019324;28;20044;-75
2022/07/29 00:45:44;;;;;;;0.73;0.45;;;;;;;18.99;73.80;101581.53;20913646;28;20063;-74
2022/07/29 00:55:46;;;;;;;0.40;0.40;;;;;;;18.98;73.87;101571.72;20925654;28;20450;-75
2022/07/29 01:05:47;;;;;;;0.40;0.40;;;;;;;18.97;73.84;101562.75;20902325;28;20044;-74
2022/07/29 01:15:58;;;;;;;0.80;0.50;;;;;;;18.97;73.93;101551.97;21003178;28;20058;-74
2022/07/29 01:26:30;;;;;;;0.40;0.40;;;;;;;18.96;73.77;101531.34;20876824;28;20094;-74
2022/07/29 01:37:02;;;;;;;0.65;0.60;;;;;;;18.96;73.96;101517.84;20930473;28;20048;-74
2022/07/29 01:47:12;;;;;;;0.68;0.68;;;;;;;18.90;74.02;101502.19;20875018;28;20041;-74
2022/07/29 01:57:17;;;;;;;0.60;0.50;;;;;;;18.88;74.08;101487.97;20951902;28;20044;-74
2022/07/29 02:07:21;;;;;;;0.70;0.50;;;;;;;18.84;73.92;101481.13;20999146;28;20055;-74
2022/07/29 02:17:31;;;;;;;0.53;0.53;;;;;;;18.94;73.97;101492.84;21056974;28;20289;-74
2022/07/29 02:27:34;;;;;;;0.70;0.50;;;;;;;18.94;73.87;101478.50;21005570;28;20105;-74
2022/07/29 02:37:37;;;;;;;0.50;0.50;;;;;;;18.93;74.34;101474.94;21029581;28;20412;-74
2022/07/29 02:47:43;;;;;;;0.85;0.47;;;;;;;18.83;73.95;101458.69;20908998;28;20099;-74
2022/07/29 02:57:59;;;;;;;0.60;0.50;;;;;;;18.93;74.11;101469.53;20941632;28;20060;-74
2022/07/29 03:08:04;;;;;;;0.60;0.60;;;;;;;18.83;74.07;101457.81;20995865;28;20071;-74
2022/07/29 03:18:06;;;;;;;0.50;0.50;;;;;;;18.85;74.26;101447.75;20965542;28;20628;-74
2022/07/29 03:28:08;;;;;;;0.60;0.60;;;;;;;18.92;74.08;101461.59;20901455;28;20055;-74
2022/07/29 03:38:10;;;;;;;0.75;0.57;;;;;;;18.75;74.00;101438.72;20966194;28;20049;-75
2022/07/29 03:48:14;;;;;;;0.55;0.55;;;;;;;18.78;74.04;101436.66;20955649;28;20041;-75
2022/07/29 03:58:16;;;;;;;1.23;0.60;;;;;;;18.91;74.30;101462.59;20916398;28;20049;-75
2022/07/29 04:08:17;;;;;;;0.55;0.45;;;;;;;18.91;74.11;101459.88;20973694;28;20041;-75
2022/07/29 04:18:19;;;;;;;0.40;0.40;;;;;;;18.90;74.22;101452.78;21040415;28;20055;-75
2022/07/29 04:28:20;;;;;;;0.50;0.50;;;;;;;18.91;74.21;101454.50;20937306;28;20057;-74
2022/07/29 04:38:22;;;;;;;0.63;0.50;;;;;;;18.89;74.22;101454.59;20909128;28;20050;-74
2022/07/29 04:48:24;;;;;;;0.50;0.50;;;;;;;18.89;74.26;101457.31;20913974;28;20068;-75
2022/07/29 04:58:29;;;;;;;1.08;0.77;;;;;;;18.75;74.33;101436.03;20914498;28;20525;-75
2022/07/29 05:08:30;;;;;;;0.88;0.60;;;;;;;18.90;75.38;101447.38;20916654;28;20452;-75
2022/07/29 05:18:32;;;;;;;2.60;0.70;;;;;;;18.66;75.39;101400.78;20906741;28;20566;-73
2022/07/29 05:28:34;;;;;;;1.17;0.60;;;;;;;18.79;77.32;101424.00;20952450;28;20450;-73
2022/07/29 05:38:36;;;;;;;2.35;0.63;;;;;;;18.95;78.50;101435.19;20921160;28;20143;-73
2022/07/29 05:48:38;;;;;;;1.25;0.90;;;;;;;18.99;78.83;101457.41;20957752;28;20445;-73
2022/07/29 05:58:40;;;;;;;1.27;0.70;;;;;;;18.99;78.63;101455.56;20945885;28;20143;-72
2022/07/29 06:08:42;;;;;;;1.58;0.90;;;;;;;19.02;78.51;101472.50;20945611;28;20463;-73
2022/07/29 06:18:43;;;;;;;2.40;1.00;;;;;;;19.04;78.26;101470.53;20905208;28;20395;-75
2022/07/29 06:28:45;;;;;;;1.60;0.80;;;;;;;19.05;77.63;101469.53;20875351;28;20048;-76
2022/07/29 06:38:46;;;;;;;3.67;0.73;;;;;;;19.06;77.09;101473.97;20887095;28;20075;-73
2022/07/29 06:48:52;;;;;;;3.63;1.00;;;;;;;19.06;77.18;101482.06;20903541;28;20044;-73
2022/07/29 06:58:54;;;;;;;1.92;0.70;;;;;;;19.06;76.91;101480.19;20898050;28;20053;-73
2022/07/29 07:08:55;;;;;;;2.85;0.90;;;;;;;19.00;76.75;101469.94;20901480;28;20059;-73
2022/07/29 07:18:57;;;;;;;2.13;0.70;;;;;;;19.07;76.83;101486.47;20909762;28;20055;-74
2022/07/29 07:29:00;;;;;;;1.67;0.73;;;;;;;18.96;76.35;101481.94;20919640;28;20064;-73
2022/07/29 07:39:02;;;;;;;1.17;0.70;;;;;;;19.04;76.65;101492.13;20919676;28;20044;-74
2022/07/29 07:49:04;;;;;;;1.05;0.60;;;;;;;19.11;76.66;101486.06;20902875;28;20147;-74
2022/07/29 07:59:05;;;;;;;2.42;1.38;;;;;;;19.14;76.40;101487.66;20916667;28;20052;-74
2022/07/29 08:09:07;;;;;;;1.70;0.90;;;;;;;19.15;76.57;101475.00;20902610;28;20048;-74
2022/07/29 08:19:28;;;;;;;3.53;0.90;;;;;;;19.18;76.73;101483.69;20900632;28;20095;-73
2022/07/29 08:29:30;;;;;;;2.35;0.88;;;;;;;19.20;76.25;101468.22;20887478;28;20067;-74
2022/07/29 08:39:32;;;;;;;1.10;0.70;;;;;;;19.21;76.11;101464.53;20886296;28;20040;-74
2022/07/29 08:49:35;;;;;;;1.35;0.80;;;;;;;19.21;76.19;101459.16;20871514;28;20507;-74
2022/07/29 08:59:37;;;;;;;0.80;0.70;;;;;;;18.93;75.93;101409.34;20887370;28;20054;-74
2022/07/29 09:09:39;;;;;;;2.55;0.80;;;;;;;19.11;76.06;101444.72;20892877;28;20432;-73
2022/07/29 09:19:42;;;;;;;2.28;0.77;;;;;;;19.20;76.14;101470.94;20893885;28;20048;-73
2022/07/29 09:29:46;;;;;;;1.70;0.85;;;;;;;19.12;76.09;101457.25;20892801;28;20145;-74
2022/07/29 09:39:48;;;;;;;1.75;0.90;;;;;;;19.19;76.14;101477.31;20892923;28;20528;-74
2022/07/29 09:49:59;;;;;;;1.70;0.75;;;;;;;19.06;76.29;101457.78;20873754;28;20060;-74
2022/07/29 10:00:01;;;;;;;2.58;1.30;;;;;;;19.19;76.20;101480.00;20908300;28;20554;-74
2022/07/29 10:10:28;;;;;;;2.75;1.20;;;;;;;19.21;76.72;101479.88;20902888;28;20045;-74
2022/07/29 10:20:30;;;;;;;2.03;1.00;;;;;;;19.21;76.73;101477.16;20895803;28;20137;-75
2022/07/29 10:30:32;;;;;;;4.15;1.00;;;;;;;19.22;77.09;101468.97;20884507;28;20136;-75
2022/07/29 10:51:55;;;;;;;2.53;1.10;;;;;;;19.21;77.97;101461.84;20885529;28;20414;-74
2022/07/29 11:01:57;;;;;;;2.70;1.30;;;;;;;19.21;78.04;101469.94;20880074;28;20109;-74
2022/07/29 11:12:37;;;;;;;1.55;0.82;;;;;;;19.21;78.51;101463.66;20887412;28;20113;-74
2022/07/29 11:22:40;;;;;;;2.25;1.13;;;;;;;19.17;78.51;101463.09;20890613;28;20052;-73
2022/07/29 11:32:48;;;;;;;2.38;0.90;;;;;;;19.22;78.67;101473.47;20895159;28;20060;-74
2022/07/29 11:42:51;;;;;;;1.67;0.88;;;;;;;19.23;78.82;101467.13;20883346;28;20123;-74
2022/07/29 11:52:53;;;;;;;1.10;0.80;;;;;;;19.23;78.86;101470.66;20885137;28;20404;-74
2022/07/29 12:02:57;;;;;;;2.05;0.93;;;;;;;19.22;79.08;101444.66;20873168;28;20048;-75
2022/07/29 12:13:01;;;;;;;1.70;1.43;;;;;;;19.26;78.94;101442.56;20872298;28;20052;-74
2022/07/29 12:23:06;;;;;;;1.65;1.02;;;;;;;19.22;79.05;101433.88;20879337;28;20048;-75
2022/07/29 12:33:13;;;;;;;0.98;0.82;;;;;;;19.27;79.38;101439.72;20887840;28;20528;-74
2022/07/29 12:43:21;;;;;;;1.40;1.20;;;;;;;19.28;79.46;101449.53;20872466;28;20052;-75
2022/07/29 12:53:23;;;;;;;1.70;1.05;;;;;;;19.29;79.49;101445.00;20878875;28;20052;-74
2022/07/29 13:03:25;;;;;;;0.95;0.75;;;;;;;19.31;79.85;101440.31;20884737;28;20048;-75
2022/07/29 13:13:27;;;;;;;1.33;1.00;;;;;;;19.32;79.90;101430.38;20884302;28;20048;-74
2022/07/29 13:23:29;;;;;;;2.10;1.15;;;;;;;19.14;80.13;101409.38;20878096;28;20052;-74
2022/07/29 13:33:31;;;;;;;1.38;0.82;;;;;;;19.33;80.22;101432.94;20879326;28;20056;-74
2022/07/29 13:43:32;;;;;;;1.98;1.00;;;;;;;19.35;80.52;101413.91;20878498;28;20186;-74
2022/07/29 13:53:34;;;;;;;2.38;1.10;;;;;;;19.36;80.34;101418.31;20878993;28;20615;-74
2022/07/29 14:03:38;;;;;;;2.03;0.90;;;;;;;19.34;80.54;101425.69;20872177;28;20560;-74
2022/07/29 14:13:40;;;;;;;;;;;;;;;19.34;80.57;101428.38;20889090;28;20049;-74
2022/07/29 14:23:42;;;;;;;1.27;1.10;;;;;;;19.33;80.66;101421.28;20880548;28;20078;-74
2022/07/29 14:33:44;;;;;;;1.75;1.05;;;;;;;19.33;80.80;101415.88;20888432;28;20064;-73
2022/07/29 14:43:49;;;;;;;1.85;0.98;;;;;;;19.33;80.77;101416.75;20892545;28;20202;-74
2022/07/29 14:53:51;;;;;;;1.30;1.02;;;;;;;19.35;80.63;101408.50;20891646;28;20068;-74
2022/07/29 15:03:52;;;;;;;1.95;1.00;;;;;;;19.37;80.73;101409.22;20905927;28;20045;-73
2022/07/29 15:14:00;;;;;;;2.35;1.10;;;;;;;19.39;80.64;101420.75;20895212;28;20059;-73
2022/07/29 15:24:03;;;;;;;1.88;1.05;;;;;;;19.40;80.24;101412.53;20884686;28;20072;-74
2022/07/29 15:34:05;;;;;;;4.05;1.67;;;;;;;19.43;81.79;101400.56;20895588;28;20048;-74
2022/07/29 15:44:07;;;;;;;10.93;2.90;;;;;;;19.47;83.55;101404.75;20898160;28;20497;-74
2022/07/29 15:54:09;;;;;;;15.02;4.57;;;;;;;19.49;84.80;101405.47;20886836;28;20505;-73
2022/07/29 16:04:10;;;;;;;16.60;5.15;;;;;;;19.49;86.16;101400.06;20881318;28;20178;-73
2022/07/29 16:14:12;;;;;;;12.30;4.10;;;;;;;19.47;85.77;101393.94;20910357;28;20048;-73
2022/07/29 16:24:14;;;;;;;10.63;4.03;;;;;;;19.51;85.37;101400.78;20889169;28;20052;-73
2022/07/29 16:34:15;;;;;;;10.45;3.90;;;;;;;19.51;85.19;101395.38;20907638;28;20142;-73
2022/07/29 16:44:17;;;;;;;9.90;4.28;;;;;;;19.49;84.76;101397.38;20909352;28;20037;-74
2022/07/29 16:54:18;;;;;;;11.93;3.92;;;;;;;19.49;85.27;101389.25;20901507;28;20544;-75
2022/07/29 17:04:20;;;;;;;7.60;3.45;;;;;;;19.51;85.95;101386.41;20898905;28;20791;-75
2022/07/29 17:14:25;;;;;;;7.38;3.20;;;;;;;19.48;86.04;101384.84;20873685;28;20583;-75
2022/07/29 17:24:27;;;;;;;6.97;3.40;;;;;;;19.48;86.02;101395.66;20880854;28;20501;-75
2022/07/29 17:34:29;;;;;;;7.45;2.92;;;;;;;19.46;86.29;101389.53;20883350;28;20143;-75
2022/07/29 17:44:31;;;;;;;7.30;2.60;;;;;;;19.43;85.55;101389.78;20884277;28;20124;-75
2022/07/29 17:54:36;;;;;;;5.90;2.70;;;;;;;19.42;86.16;101401.56;20888578;28;20080;-75
2022/07/29 18:04:38;;;;;;;5.72;2.40;;;;;;;19.18;86.97;101364.94;20871770;28;20056;-76
2022/07/29 18:14:40;;;;;;;5.15;2.55;;;;;;;19.36;87.02;101404.81;20906464;28;20072;-76
2022/07/29 18:24:41;;;;;;;3.67;2.15;;;;;;;19.32;86.97;101400.66;20916703;28;20048;-76
2022/07/29 18:34:43;;;;;;;5.13;2.38;;;;;;;19.34;86.91;101406.78;20911713;28;20041;-75
2022/07/29 18:44:46;;;;;;;4.68;2.20;;;;;;;19.13;86.70;101372.59;20898788;28;20048;-76
2022/07/29 18:54:49;;;;;;;4.43;1.77;;;;;;;19.31;86.83;101412.44;20928890;28;20106;-75
2022/07/29 19:04:51;;;;;;;3.72;2.22;;;;;;;19.31;86.70;101420.56;20925576;28;20064;-77
2022/07/29 19:14:52;;;;;;;3.72;2.17;;;;;;;19.28;86.64;101430.63;20919893;28;20118;-76
2022/07/29 19:24:54;;;;;;;4.15;2.10;;;;;;;19.23;86.36;101432.88;20929946;28;20052;-77
2022/07/29 19:45:16;;;;;;;3.30;1.70;;;;;;;19.26;86.27;101442.56;20923851;28;20048;-76
2022/07/29 19:55:17;;;;;;;4.00;1.98;;;;;;;19.22;86.33;101452.75;20917754;28;20160;-76
2022/07/29 20:05:19;;;;;;;2.92;2.10;;;;;;;19.24;86.51;101456.19;20915417;28;20505;-76
2022/07/29 20:15:28;;;;;;;2.55;1.60;;;;;;;19.23;86.38;101465.25;20917684;28;20048;-76
2022/07/29 20:25:30;;;;;;;2.28;1.60;;;;;;;19.21;86.29;101464.53;20912185;28;20528;-76
2022/07/29 20:35:31;;;;;;;2.63;1.67;;;;;;;19.10;86.27;101449.25;20917941;28;20083;-76
2022/07/29 20:45:34;;;;;;;3.45;2.13;;;;;;;19.21;86.01;101475.34;20904203;28;20141;-76
2022/07/29 20:55:37;;;;;;;2.03;1.58;;;;;;;19.05;85.90;101448.81;20919713;28;20470;-76
2022/07/29 21:05:42;;;;;;;2.45;1.70;;;;;;;19.21;86.00;101471.78;20923165;28;20520;-76
2022/07/29 21:15:47;;;;;;;2.38;1.63;;;;;;;19.20;85.90;101475.47;20917759;28;20056;-76
2022/07/29 21:25:49;;;;;;;2.17;1.67;;;;;;;19.07;85.75;101464.88;20907374;28;20052;-76
2022/07/29 21:35:51;;;;;;;2.50;1.65;;;;;;;19.18;85.71;101483.69;20915324;28;20041;-76
2022/07/29 21:46:15;;;;;;;2.83;1.80;;;;;;;19.18;85.65;101489.09;20913246;28;20099;-76
2022/07/29 21:56:16;;;;;;;2.67;1.80;;;;;;;19.18;85.65;101489.09;20914162;28;20450;-76
2022/07/29 22:06:18;;;;;;;4.47;2.55;;;;;;;19.17;85.46;101476.59;20903582;28;20045;-76
2022/07/29 22:16:20;;;;;;;3.35;1.98;;;;;;;19.16;85.84;101474.88;20902981;28;20068;-76
2022/07/29 22:26:21;;;;;;;3.53;1.90;;;;;;;19.17;85.83;101475.72;20909867;28;20520;-76
2022/07/29 22:36:24;;;;;;;2.17;1.65;;;;;;;19.16;85.75;101469.47;20936234;28;20048;-76
2022/07/29 22:46:25;;;;;;;1.83;1.52;;;;;;;19.15;85.78;101477.69;20925736;28;20053;-76
2022/07/29 22:56:27;;;;;;;2.28;1.80;;;;;;;19.15;85.71;101478.56;20919673;28;20507;-76
2022/07/29 23:06:28;;;;;;;1.95;1.65;;;;;;;19.13;85.89;101469.75;20927039;28;20163;-76
2022/07/29 23:16:30;;;;;;;1.73;1.63;;;;;;;19.13;85.56;101464.34;20920257;28;20618;-76
2022/07/29 23:26:33;;;;;;;2.33;1.50;;;;;;;19.12;85.68;101458.06;20917863;28;20175;-76
2022/07/29 23:36:34;;;;;;;2.42;1.60;;;;;;;19.11;85.62;101452.81;20917935;28;20110;-76
2022/07/29 23:46:36;;;;;;;2.28;1.75;;;;;;;19.08;85.57;101450.41;20919697;28;20052;-77
2022/07/29 23:56:38;;;;;;;2.00;1.45;;;;;;;19.09;85.25;101435.91;20914217;28;20059;-75
